KLEB

Lebanon Municipal Airport

Lebanon, New Hampshire, USA
KLEB 230855Z 2309/2406 VRB03KT P6SM SKC
Issued Valid From Valid To
Apr-23 @ 08:55 UTC
(42 minutes ago)
Apr-23 @ 09:00 UTC
(37 minutes ago)
Apr-24 @ 06:00 UTC
(in 20 hours)
Apr-23 @ 09:00 to Apr-24 @ 06:00
KLEB 230855Z 2309/2406 VRB03KT P6SM SKC
Wind Visibility Clouds
Variable at 3 knots Greater than 6 miles
  • Clear skies
KLEB 230855Z 2309/2406 VRB03KT P6SM SKC
Issued Apr-23 @ 08:55 UTC
(42 minutes ago)
Valid From Apr-23 @ 09:00 UTC
(37 minutes ago)
Valid To Apr-24 @ 06:00 UTC
(in 20 hours)
Apr-23 @ 09:00 - Apr-24 @ 06:00
Wind Visibility
Variable at 3 knots Greater than 6 miles
Clouds
  • Clear skies